Time;durP1;ratioP1;P1;durP2;ratioP2;P2;SDS_P1;SDS_P2;PMS_P1;PMS_P2;Temp;Humidity;BMP_temperature;BMP_pressure;BME280_temperature;BME280_humidity;BME280_pressure;Samples;Min_cycle;Max_cycle;Signal;HPM_P1;HPM_P2
2021/10/13 00:01:10;;;;;;;8.50;4.60;;;;;;;;;;5070112;28;20065;-84
2021/10/13 00:03:36;;;;;;;10.77;4.75;;;;;;;;;;5045988;28;20457;-88
2021/10/13 00:06:02;;;;;;;7.68;4.15;;;;;;;;;;5046750;28;20021;-84
2021/10/13 00:08:28;;;;;;;9.20;4.05;;;;;;;;;;5064139;28;20111;-89
2021/10/13 00:10:54;;;;;;;6.30;4.25;;;;;;;;;;5048494;28;20445;-87
2021/10/13 00:13:20;;;;;;;8.70;4.43;;;;;;;;;;5064046;28;20048;-87
2021/10/13 00:15:46;;;;;;;7.10;3.92;;;;;;;;;;5045096;28;20044;-89
2021/10/13 00:18:12;;;;;;;8.77;4.15;;;;;;;;;;5042998;28;20032;-85
2021/10/13 00:20:38;;;;;;;9.68;4.28;;;;;;;;;;5050208;28;20033;-87
2021/10/13 00:23:04;;;;;;;6.95;4.22;;;;;;;;;;5048641;28;20391;-85
2021/10/13 00:25:30;;;;;;;8.88;4.20;;;;;;;;;;5054382;28;20049;-87
2021/10/13 00:27:56;;;;;;;8.00;4.38;;;;;;;;;;5052501;28;20046;-89
2021/10/13 00:30:23;;;;;;;8.32;4.60;;;;;;;;;;5050475;28;20139;-87
2021/10/13 00:32:48;;;;;;;6.97;4.50;;;;;;;;;;5063785;28;20029;-86
2021/10/13 00:35:15;;;;;;;10.20;4.90;;;;;;;;;;5047161;28;20130;-87
2021/10/13 00:37:41;;;;;;;8.80;4.80;;;8.00;99.90;;;;;;5047673;28;20036;-85
2021/10/13 00:40:07;;;;;;;10.68;4.68;;;;;;;;;;5048768;28;20405;-88
2021/10/13 00:42:33;;;;;;;10.65;4.05;;;;;;;;;;5048031;28;20017;-87
2021/10/13 00:44:59;;;;;;;8.48;4.25;;;;;;;;;;5050857;28;20029;-88
2021/10/13 00:47:25;;;;;;;8.18;4.30;;;;;;;;;;5046770;28;20021;-87
2021/10/13 00:49:51;;;;;;;7.90;4.30;;;;;;;;;;5046296;28;20036;-85
2021/10/13 00:52:17;;;;;;;6.75;4.00;;;;;;;;;;5051108;28;20069;-87
2021/10/13 00:54:44;;;;;;;7.72;4.28;;;;;;;;;;5062575;28;20036;-86
2021/10/13 00:57:10;;;;;;;7.95;3.88;;;;;;;;;;5050002;28;20087;-87
2021/10/13 00:59:36;;;;;;;9.30;4.43;;;;;;;;;;5066656;28;20031;-88
2021/10/13 01:02:04;;;;;;;8.52;4.28;;;;;;;;;;5064223;28;20120;-88
2021/10/13 01:04:30;;;;;;;7.68;4.50;;;;;;;;;;5052654;28;20032;-86
2021/10/13 01:07:11;;;;;;;7.25;4.10;;;;;;;;;;5053209;28;20146;-86
2021/10/13 01:09:44;;;;;;;10.27;4.25;;;;;;;;;;5072986;28;20451;-85
2021/10/13 01:12:21;;;;;;;6.55;4.07;;;;;;;;;;5076360;28;20096;-85
2021/10/13 01:14:54;;;;;;;9.48;4.20;;;;;;;;;;5065612;28;20017;-89
2021/10/13 01:17:29;;;;;;;7.90;4.05;;;;;;;;;;5068482;28;20123;-83
2021/10/13 01:20:05;;;;;;;7.20;4.20;;;;;;;;;;5062253;28;20499;-82
2021/10/13 01:22:47;;;;;;;7.32;3.90;;;;;;;;;;5046546;28;20052;-86
2021/10/13 01:25:17;;;;;;;7.82;4.10;;;;;;;;;;5068041;28;20021;-85
2021/10/13 01:27:52;;;;;;;6.30;3.95;;;;;;;;;;5069068;28;20029;-86
2021/10/13 01:30:22;;;;;;;6.30;4.10;;;;;;;;;;5050200;28;20554;-86
2021/10/13 01:32:53;;;;;;;10.57;4.40;;;;;;;;;;5051311;28;20021;-85
2021/10/13 01:35:19;;;;;;;6.60;3.92;;;;;;;;;;5064672;28;20788;-89
2021/10/13 01:37:51;;;;;;;8.00;4.00;;;;;;;;;;5065422;28;20036;-84
2021/10/13 01:40:19;;;;;;;8.48;4.25;;;7.40;99.90;;;;;;5063878;28;20096;-88
2021/10/13 01:42:47;;;;;;;7.80;4.22;;;;;;;;;;5048907;28;20036;-87
2021/10/13 01:45:13;;;;;;;11.63;4.85;;;;;;;;;;5049593;28;20688;-86
2021/10/13 01:47:40;;;;;;;9.60;4.53;;;;;;;;;;5049577;28;20029;-88
2021/10/13 01:50:07;;;;;;;8.25;4.40;;;7.40;99.90;;;;;;5048905;28;20025;-86
2021/10/13 01:52:34;;;;;;;6.80;4.32;;;;;;;;;;5044429;28;20033;-85
2021/10/13 01:55:01;;;;;;;9.68;5.07;;;;;;;;;;5050391;28;20033;-85
2021/10/13 01:57:28;;;;;;;8.43;4.53;;;;;;;;;;5052127;28;20048;-87
2021/10/13 01:59:56;;;;;;;8.25;4.55;;;;;;;;;;5064338;28;20067;-85
2021/10/13 02:02:27;;;;;;;7.78;4.30;;;;;;;;;;5051573;28;20098;-85
2021/10/13 02:04:54;;;;;;;10.32;5.18;;;;;;;;;;5068871;28;20495;-87
2021/10/13 02:07:21;;;;;;;8.70;4.47;;;;;;;;;;5072301;28;20025;-86
2021/10/13 02:09:47;;;;;;;10.27;4.93;;;;;;;;;;5049324;28;20021;-88
2021/10/13 02:12:14;;;;;;;7.43;4.60;;;;;;;;;;5062965;28;20032;-87
2021/10/13 02:14:40;;;;;;;10.13;5.80;;;;;;;;;;5049191;28;20041;-85
2021/10/13 02:17:08;;;;;;;7.50;5.30;;;;;;;;;;5052506;28;20067;-88
2021/10/13 02:19:35;;;;;;;10.70;5.78;;;;;;;;;;5054061;28;20031;-87
2021/10/13 02:22:01;;;;;;;9.20;5.03;;;;;;;;;;5058901;28;20025;-84
2021/10/13 02:24:30;;;;;;;8.27;4.93;;;;;;;;;;5069442;28;20024;-87
2021/10/13 02:27:02;;;;;;;7.72;5.05;;;;;;;;;;5054738;28;20029;-89
2021/10/13 02:29:28;;;;;;;10.25;4.95;;;;;;;;;;5051426;28;20483;-86
2021/10/13 02:31:54;;;;;;;8.77;5.05;;;;;;;;;;5057496;28;20409;-88
2021/10/13 02:34:20;;;;;;;9.02;4.88;;;;;;;;;;5062482;28;20124;-89
2021/10/13 02:36:46;;;;;;;10.73;4.50;;;;;;;;;;5049523;28;20032;-90
2021/10/13 02:39:15;;;;;;;8.45;3.95;;;;;;;;;;5050082;28;20029;-88
2021/10/13 02:41:41;;;;;;;7.43;4.30;;;;;;;;;;5063254;28;20648;-89
2021/10/13 02:44:08;;;;;;;13.60;8.50;;;6.80;99.90;;;;;;5065481;28;20579;-89
2021/10/13 02:46:55;;;;;;;8.90;4.97;;;6.80;99.90;;;;;;5055782;28;20017;-89
2021/10/13 02:49:48;;;;;;;10.60;4.75;;;6.80;99.90;;;;;;5051618;28;20033;-88
2021/10/13 02:52:21;;;;;;;7.47;4.13;;;;;;;;;;5051121;28;20398;-89
2021/10/13 02:54:50;;;;;;;9.45;4.60;;;;;;;;;;5071379;28;20035;-87
2021/10/13 02:57:17;;;;;;;10.85;4.72;;;;;;;;;;5067928;28;20115;-85
2021/10/13 02:59:45;;;;;;;12.30;4.88;;;;;;;;;;5068354;28;20196;-87
2021/10/13 03:02:17;;;;;;;6.47;4.13;;;6.60;99.90;;;;;;5053453;28;20029;-85
2021/10/13 03:04:49;;;;;;;9.15;4.72;;;6.60;99.90;;;;;;5049621;28;20028;-86
2021/10/13 03:07:19;;;;;;;7.13;4.40;;;6.60;99.90;;;;;;5052891;28;20378;-89
2021/10/13 03:09:59;;;;;;;9.35;5.05;;;;;;;;;;5050922;28;20017;-87
2021/10/13 03:12:27;;;;;;;9.93;4.65;;;;;;;;;;5057464;28;20028;-84
2021/10/13 03:14:55;;;;;;;10.23;5.07;;;;;;;;;;5064518;28;20124;-87
2021/10/13 03:17:23;;;;;;;10.65;5.25;;;;;;;;;;5053278;28;20064;-87
2021/10/13 03:19:49;;;;;;;11.35;5.15;;;;;;;;;;5066404;28;20026;-87
2021/10/13 03:22:15;;;;;;;12.00;5.53;;;;;;;;;;5053154;28;20037;-88
2021/10/13 03:24:41;;;;;;;8.57;4.68;;;;;;;;;;5054670;28;20092;-87
2021/10/13 03:27:07;;;;;;;7.78;4.45;;;;;;;;;;5047533;28;20029;-88
2021/10/13 03:29:33;;;;;;;7.20;4.75;;;;;;;;;;5073469;28;20020;-87
2021/10/13 03:31:59;;;;;;;10.27;4.65;;;;;;;;;;5057528;28;20067;-87
2021/10/13 03:34:25;;;;;;;10.90;4.88;;;;;;;;;;5048911;28;20490;-89
2021/10/13 03:36:51;;;;;;;9.50;4.88;;;;;;;;;;5069144;28;20033;-87
2021/10/13 03:39:17;;;;;;;10.48;4.53;;;6.50;99.90;;;;;;5052839;28;20517;-85
2021/10/13 03:41:44;;;;;;;11.02;4.97;;;;;;;;;;5051100;28;20049;-85
2021/10/13 03:44:10;;;;;;;13.57;5.28;;;;;;;;;;5047596;28;20099;-88
2021/10/13 03:46:39;;;;;;;7.97;4.60;;;;;;;;;;5051401;28;20028;-86
2021/10/13 03:49:05;;;;;;;11.90;6.00;;;6.50;99.90;;;;;;5070157;28;20043;-86
2021/10/13 03:51:32;;;;;;;10.45;5.30;;;;;;;;;;5051855;28;20040;-88
2021/10/13 03:53:58;;;;;;;9.85;4.72;;;;;;;;;;5054319;28;20037;-86
2021/10/13 03:56:24;;;;;;;9.80;4.75;;;;;;;;;;5050238;28;20029;-85
2021/10/13 03:58:50;;;;;;;11.23;5.82;;;;;;;;;;5052316;28;20044;-87
2021/10/13 04:01:16;;;;;;;8.57;5.18;;;;;;;;;;5060350;28;20060;-86
2021/10/13 04:03:42;;;;;;;11.48;5.75;;;;;;;;;;5081906;28;20441;-85
2021/10/13 04:06:09;;;;;;;10.25;5.13;;;;;;;;;;5046497;28;20025;-85
2021/10/13 04:08:36;;;;;;;8.90;4.95;;;;;;;;;;5064317;28;20037;-86
2021/10/13 04:11:02;;;;;;;7.22;4.90;;;;;;;;;;5066522;28;20021;-86
2021/10/13 04:13:28;;;;;;;10.38;5.32;;;;;;;;;;5044061;28;20029;-88
2021/10/13 04:15:54;;;;;;;7.95;4.75;;;;;;;;;;5043225;28;20037;-85
2021/10/13 04:18:20;;;;;;;13.93;5.28;;;;;;;;;;5053081;28;20029;-85
2021/10/13 04:20:49;;;;;;;7.72;4.70;;;;;;;;;;5050652;28;20037;-86
2021/10/13 04:23:15;;;;;;;9.70;5.20;;;;;;;;;;5048086;28;20029;-84
2021/10/13 04:25:41;;;;;;;9.07;4.97;;;;;;;;;;5064130;28;20033;-83
2021/10/13 04:28:07;;;;;;;8.35;5.13;;;;;;;;;;5047062;28;20022;-84
2021/10/13 04:30:33;;;;;;;11.02;5.63;;;;;;;;;;5060964;28;20049;-87
2021/10/13 04:32:59;;;;;;;11.57;5.38;;;;;;;;;;5051642;28;20041;-88
2021/10/13 04:35:28;;;;;;;9.15;5.30;;;;;;;;;;5049673;28;20028;-84
2021/10/13 04:37:54;;;;;;;10.00;5.50;;;;;;;;;;5065180;28;20037;-84
2021/10/13 04:40:20;;;;;;;9.13;5.07;;;;;;;;;;5052671;28;20039;-87
2021/10/13 04:42:46;;;;;;;9.63;5.25;;;;;;;;;;5053909;28;20029;-86
2021/10/13 04:45:12;;;;;;;10.75;5.28;;;;;;;;;;5047547;28;20032;-85
2021/10/13 04:47:38;;;;;;;8.05;4.38;;;;;;;;;;5062189;28;20029;-87
2021/10/13 04:50:04;;;;;;;9.82;5.18;;;;;;;;;;5053167;28;20044;-88
2021/10/13 04:52:30;;;;;;;9.30;5.38;;;;;;;;;;5050187;28;20043;-86
2021/10/13 04:54:57;;;;;;;13.98;6.45;;;;;;;;;;5064469;28;20037;-87
2021/10/13 04:57:23;;;;;;;12.52;6.15;;;;;;;;;;5064942;28;20048;-88
2021/10/13 04:59:50;;;;;;;10.27;5.82;;;;;;;;;;5072109;28;20105;-87
2021/10/13 05:02:16;;;;;;;11.02;5.72;;;;;;;;;;5049607;28;20221;-87
2021/10/13 05:04:42;;;;;;;10.50;5.32;;;;;;;;;;5051621;28;20029;-88
2021/10/13 05:07:08;;;;;;;13.02;5.85;;;;;;;;;;5053415;28;20537;-86
2021/10/13 05:09:35;;;;;;;9.60;5.47;;;;;;;;;;5052619;28;20096;-86
2021/10/13 05:12:01;;;;;;;8.00;4.90;;;;;;;;;;5069477;28;20316;-88
2021/10/13 05:14:27;;;;;;;11.40;5.60;;;;;;;;;;5067707;28;20021;-86
2021/10/13 05:16:53;;;;;;;9.45;5.18;;;;;;;;;;5069615;28;20048;-89
2021/10/13 05:19:19;;;;;;;11.48;5.07;;;;;;;;;;5048388;28;20029;-86
2021/10/13 05:21:45;;;;;;;8.90;5.05;;;;;;;;;;5069424;28;20029;-85
2021/10/13 05:24:11;;;;;;;10.55;4.95;;;;;;;;;;5041760;28;20111;-86
2021/10/13 05:26:38;;;;;;;10.27;5.35;;;;;;;;;;5044203;28;20033;-84
2021/10/13 05:29:04;;;;;;;10.27;5.90;;;;;;;;;;5052281;28;20033;-82
2021/10/13 05:31:30;;;;;;;9.60;5.10;;;;;;;;;;5065647;28;20047;-84
2021/10/13 05:33:56;;;;;;;9.45;5.10;;;;;;;;;;5051060;28;20092;-83
2021/10/13 05:36:22;;;;;;;9.32;4.93;;;;;;;;;;5055134;28;20024;-85
2021/10/13 05:38:48;;;;;;;9.13;5.65;;;;;;;;;;5079054;28;20052;-87
2021/10/13 05:41:14;;;;;;;9.75;5.82;;;;;;;;;;5058365;28;20580;-89
2021/10/13 05:43:40;;;;;;;12.65;5.60;;;;;;;;;;5053109;28;20727;-84
2021/10/13 05:46:06;;;;;;;9.25;5.10;;;;;;;;;;5055399;28;20043;-86
2021/10/13 05:48:32;;;;;;;9.90;5.25;;;;;;;;;;5070306;28;20028;-85
2021/10/13 05:50:59;;;;;;;11.05;6.28;;;;;;;;;;5057466;28;20037;-87
2021/10/13 05:53:25;;;;;;;10.75;5.10;;;;;;;;;;5058891;28;20029;-87
2021/10/13 05:55:51;;;;;;;8.43;5.40;;;;;;;;;;5059551;28;20032;-88
2021/10/13 05:58:19;;;;;;;11.57;5.40;;;;;;;;;;5051553;28;20040;-84
2021/10/13 06:00:45;;;;;;;9.00;5.43;;;;;;;;;;5065401;28;20044;-87
2021/10/13 06:03:12;;;;;;;10.68;6.10;;;;;;;;;;5072077;28;20150;-81
2021/10/13 06:05:38;;;;;;;13.15;6.68;;;;;;;;;;5058374;28;20434;-85
2021/10/13 06:08:04;;;;;;;9.48;5.57;;;;;;;;;;5068298;28;20024;-86
2021/10/13 06:10:30;;;;;;;13.48;5.90;;;;;;;;;;5058631;28;20021;-85
2021/10/13 06:12:56;;;;;;;11.82;6.80;;;;;;;;;;5056763;28;20033;-83
2021/10/13 06:15:24;;;;;;;12.45;6.28;;;;;;;;;;5053185;28;20407;-85
2021/10/13 06:17:50;;;;;;;14.82;6.57;;;;;;;;;;5053734;28;20095;-87
2021/10/13 06:20:16;;;;;;;15.95;7.28;;;;;;;;;;5057420;28;20388;-85
2021/10/13 06:22:42;;;;;;;15.52;7.32;;;;;;;;;;5071983;28;20033;-85
2021/10/13 06:25:08;;;;;;;17.17;8.18;;;;;;;;;;5055399;28;20033;-85
2021/10/13 06:27:34;;;;;;;17.15;7.43;;;;;;;;;;5056286;28;20043;-84
2021/10/13 06:30:00;;;;;;;16.40;7.47;;;;;;;;;;5069019;28;20113;-84
2021/10/13 06:32:27;;;;;;;16.25;7.75;;;;;;;;;;5055422;28;20501;-86
2021/10/13 06:34:52;;;;;;;18.05;7.93;;;;;;;;;;5049467;28;20032;-85
2021/10/13 06:37:18;;;;;;;14.02;7.15;;;;;;;;;;5070829;28;20028;-87
2021/10/13 06:39:44;;;;;;;18.27;8.52;;;;;;;;;;5059476;28;20051;-83
2021/10/13 06:42:10;;;;;;;18.25;7.95;;;;;;;;;;5057407;28;20036;-83
2021/10/13 06:44:36;;;;;;;22.00;9.30;;;;;;;;;;5059803;28;20058;-81
2021/10/13 06:47:02;;;;;;;19.38;8.40;;;;;;;;;;5059424;28;20033;-85
2021/10/13 06:49:29;;;;;;;22.55;8.48;;;;;;;;;;5065086;28;20013;-86
2021/10/13 06:51:54;;;;;;;20.45;8.45;;;;;;;;;;5088795;28;20056;-88
2021/10/13 06:54:23;;;;;;;20.80;9.43;;;;;;;;;;5063343;28;20033;-85
2021/10/13 06:56:49;;;;;;;24.10;10.00;;;;;;;;;;5050014;28;20029;-84
2021/10/13 06:59:17;;;;;;;26.83;10.55;;;;;;;;;;5054604;28;20051;-81
2021/10/13 07:01:43;;;;;;;24.92;10.35;;;;;;;;;;5054012;28;20128;-85
2021/10/13 07:04:09;;;;;;;25.05;11.65;;;;;;;;;;5052788;28;20522;-82
2021/10/13 07:06:35;;;;;;;28.98;12.00;;;;;;;;;;5049374;28;20022;-86
2021/10/13 07:09:01;;;;;;;27.33;11.55;;;;;;;;;;5072901;28;20060;-83
2021/10/13 07:11:27;;;;;;;27.10;11.50;;;;;;;;;;5064620;28;20660;-85
2021/10/13 07:13:53;;;;;;;26.75;10.60;;;;;;;;;;5052000;28;20036;-84
2021/10/13 07:16:20;;;;;;;26.20;12.13;;;;;;;;;;5051478;28;20040;-84
2021/10/13 07:18:46;;;;;;;29.85;10.98;;;;;;;;;;5049030;28;20061;-86
2021/10/13 07:21:12;;;;;;;24.52;11.45;;;;;;;;;;5066534;28;20029;-81
2021/10/13 07:23:38;;;;;;;28.33;11.90;;;;;;;;;;5051569;28;20036;-85
2021/10/13 07:26:04;;;;;;;26.00;11.63;;;;;;;;;;5052513;28;20037;-82
2021/10/13 07:28:30;;;;;;;30.50;12.38;;;;;;;;;;5049558;28;20567;-83
2021/10/13 07:30:56;;;;;;;41.17;14.70;;;;;;;;;;5049657;28;20036;-82
2021/10/13 07:33:22;;;;;;;34.72;13.85;;;;;;;;;;5050640;28;20028;-79
2021/10/13 07:35:48;;;;;;;31.85;13.68;;;;;;;;;;5050800;28;20610;-81
2021/10/13 07:38:17;;;;;;;29.65;13.48;;;;;;;;;;5050944;28;20479;-85
2021/10/13 07:40:44;;;;;;;34.28;12.60;;;;;;;;;;5046228;28;20021;-83
2021/10/13 07:43:10;;;;;;;34.92;14.07;;;;;;;;;;5068477;28;20030;-80
2021/10/13 07:45:36;;;;;;;37.22;14.27;;;;;;;;;;5050320;28;20080;-87
2021/10/13 07:48:02;;;;;;;37.22;13.68;;;;;;;;;;5064146;28;20053;-83
2021/10/13 07:50:28;;;;;;;33.13;12.93;;;;;;;;;;5048004;28;20059;-87
2021/10/13 07:52:55;;;;;;;30.55;13.05;;;;;;;;;;5068019;28;20036;-79
2021/10/13 07:55:21;;;;;;;33.65;12.32;;;;;;;;;;5053362;28;20502;-82
2021/10/13 07:57:47;;;;;;;41.30;15.27;;;;;;;;;;5049078;28;20052;-83
2021/10/13 08:00:14;;;;;;;35.78;14.65;;;;;;;;;;5047290;28;20033;-80
2021/10/13 08:02:47;;;;;;;35.40;14.38;;;;;;;;;;5046974;28;20100;-79
2021/10/13 08:05:15;;;;;;;41.72;14.77;;;;;;;;;;5058170;28;20502;-85
2021/10/13 08:07:41;;;;;;;49.45;17.05;;;;;;;;;;5063314;28;20474;-84
2021/10/13 08:10:08;;;;;;;40.67;15.70;;;;;;;;;;5064349;28;20032;-85
2021/10/13 08:12:34;;;;;;;38.72;15.85;;;;;;;;;;5047287;28;20498;-84
2021/10/13 08:15:00;;;;;;;44.00;17.15;;;;;;;;;;5053517;28;20088;-83
2021/10/13 08:17:26;;;;;;;43.42;17.00;;;;;;;;;;5046920;28;20037;-84
2021/10/13 08:19:52;;;;;;;41.28;16.58;;;;;;;;;;5045602;28;20051;-86
2021/10/13 08:22:18;;;;;;;36.95;15.13;;;;;;;;;;5046850;28;20440;-86
2021/10/13 08:24:44;;;;;;;34.17;15.43;;;;;;;;;;5061934;28;20083;-84
2021/10/13 08:27:10;;;;;;;34.92;14.95;;;;;;;;;;5063334;28;20064;-82
2021/10/13 08:29:36;;;;;;;36.97;15.68;;;;;;;;;;5062058;28;20025;-83
2021/10/13 08:32:02;;;;;;;33.30;13.40;;;;;;;;;;5047286;28;20025;-88
2021/10/13 08:34:28;;;;;;;36.55;15.10;;;;;;;;;;5049210;28;20033;-87
2021/10/13 08:36:54;;;;;;;34.15;15.10;;;;;;;;;;5067403;28;20040;-86
2021/10/13 08:39:20;;;;;;;32.28;13.98;;;;;;;;;;5071382;28;20025;-87
2021/10/13 08:41:46;;;;;;;37.42;15.30;;;;;;;;;;5071272;28;20052;-86
2021/10/13 08:44:13;;;;;;;30.02;12.73;;;;;;;;;;5057275;28;20032;-86
2021/10/13 08:46:39;;;;;;;32.90;12.95;;;;;;;;;;5058469;28;20036;-85
2021/10/13 08:49:17;;;;;;;31.92;13.65;;;;;;;;;;5075043;28;20021;-87
2021/10/13 08:51:43;;;;;;;30.02;13.32;;;;;;;;;;5072439;28;20493;-83
2021/10/13 08:54:17;;;;;;;37.42;14.77;;;;;;;;;;5053333;28;20039;-84
2021/10/13 08:56:44;;;;;;;30.02;13.90;;;;;;;;;;5068927;28;20045;-85
2021/10/13 08:59:09;;;;;;;30.60;14.00;;;;;;;;;;5071787;28;20048;-84
2021/10/13 09:01:48;;;;;;;34.80;12.68;;;;;;;;;;5068290;28;20042;-86
2021/10/13 09:04:14;;;;;;;30.73;12.80;;;;;;;;;;5051838;28;20056;-86
2021/10/13 09:06:40;;;;;;;31.48;12.27;;;;;;;;;;5051786;28;20029;-86
2021/10/13 09:09:10;;;;;;;29.20;12.35;;;;;;;;;;5055027;28;20044;-86
2021/10/13 09:11:38;;;;;;;29.92;12.55;;;;;;;;;;5069819;28;20039;-84
2021/10/13 09:14:05;;;;;;;32.90;13.45;;;;;;;;;;5063938;28;20915;-83
2021/10/13 09:16:31;;;;;;;28.50;11.95;;;;;;;;;;5067877;28;20064;-83
2021/10/13 09:19:00;;;;;;;32.72;13.23;;;;;;;;;;5049694;28;20033;-84
2021/10/13 09:21:45;;;;;;;34.55;14.02;;;;;;;;;;5049514;28;20090;-84
2021/10/13 09:24:11;;;;;;;36.88;14.57;;;;;;;;;;5055222;28;20953;-83
2021/10/13 09:26:37;;;;;;;36.13;16.15;;;;;;;;;;5073914;28;20331;-85
2021/10/13 09:29:05;;;;;;;37.83;15.38;;;;;;;;;;5054060;28;20063;-86
2021/10/13 09:31:31;;;;;;;36.92;15.80;;;;;;;;;;5073460;28;20090;-88
2021/10/13 09:34:07;;;;;;;38.17;16.00;;;;;;;;;;5076429;28;21167;-83
2021/10/13 09:36:41;;;;;;;38.45;16.60;;;;;;;;;;5069903;28;20021;-84
2021/10/13 09:39:08;;;;;;;35.88;15.05;;;;;;;;;;5062026;28;20070;-84
2021/10/13 09:42:13;;;;;;;38.22;14.82;;;9.40;99.90;;;;;;5060877;28;20037;-86
2021/10/13 09:44:40;;;;;;;30.98;13.77;;;;;;;;;;5074982;28;20052;-86
2021/10/13 09:47:10;;;;;;;36.63;13.63;;;;;;;;;;5052969;28;20021;-83
2021/10/13 09:50:03;;;;;;;29.27;13.75;;;;;;;;;;5069683;28;20079;-87
2021/10/13 09:52:30;;;;;;;32.90;13.98;;;;;;;;;;5069788;28;20044;-86
2021/10/13 09:54:58;;;;;;;33.25;13.50;;;;;;;;;;5072473;28;20044;-86
2021/10/13 09:57:25;;;;;;;33.05;15.25;;;;;;;;;;5055757;28;20029;-87
2021/10/13 10:00:12;;;;;;;29.00;13.13;;;;;;;;;;5069778;28;20032;-84
2021/10/13 10:02:40;;;;;;;29.00;12.30;;;;;;;;;;5051055;28;20039;-80
2021/10/13 10:05:11;;;;;;;35.03;12.55;;;;;;;;;;5054924;28;20025;-87
2021/10/13 10:07:42;;;;;;;29.45;12.05;;;;;;;;;;5071669;28;20039;-86
2021/10/13 10:10:09;;;;;;;31.77;12.23;;;;;;;;;;5052883;28;20089;-86
2021/10/13 10:12:55;;;;;;;25.35;11.35;;;10.20;99.90;;;;;;5051156;28;20033;-84
2021/10/13 10:15:38;;;;;;;25.35;10.30;;;;;;;;;;5066265;28;20714;-84
2021/10/13 10:18:26;;;;;;;19.08;8.07;;;10.40;99.90;;;;;;5053708;28;20025;-83
2021/10/13 10:20:53;;;;;;;18.98;8.63;;;;;;;;;;5053720;28;20028;-86
2021/10/13 10:23:29;;;;;;;19.17;9.18;;;;;;;;;;5070169;28;20026;-84
2021/10/13 10:26:15;;;;;;;18.70;7.85;;;;;;;;;;5053828;28;20029;-86
2021/10/13 10:28:51;;;;;;;22.48;8.77;;;;;;;;;;5059812;28;20033;-89
2021/10/13 10:31:37;;;;;;;16.20;7.28;;;;;;;;;;5070606;28;20029;-86
2021/10/13 10:34:03;;;;;;;18.55;8.77;;;;;;;;;;5051431;28;20044;-86
2021/10/13 10:36:29;;;;;;;18.92;8.40;;;;;;;;;;5051781;28;20521;-86
2021/10/13 10:38:55;;;;;;;15.55;7.80;;;;;;;;;;5054631;28;20049;-83
2021/10/13 10:41:21;;;;;;;14.23;7.65;;;;;;;;;;5055463;28;20025;-86
2021/10/13 10:43:47;;;;;;;16.67;8.43;;;;;;;;;;5058184;28;20039;-84
2021/10/13 10:46:13;;;;;;;19.05;9.20;;;;;;;;;;5051546;28;20132;-81
2021/10/13 10:48:44;;;;;;;18.20;8.15;;;;;;;;;;5069199;28;20024;-85
2021/10/13 10:51:10;;;;;;;16.55;8.27;;;;;;;;;;5068996;28;20116;-87
2021/10/13 10:53:38;;;;;;;15.18;6.55;;;;;;;;;;5063698;28;20202;-84
2021/10/13 10:56:18;;;;;;;16.48;7.45;;;;;;;;;;5062100;28;20033;-81
2021/10/13 10:58:57;;;;;;;13.70;6.60;;;;;;;;;;5048207;28;20079;-85
2021/10/13 11:01:23;;;;;;;15.32;7.38;;;;;;;;;;5046665;28;20099;-86
2021/10/13 11:03:52;;;;;;;13.45;7.43;;;;;;;;;;5073121;28;20051;-86
2021/10/13 11:06:18;;;;;;;16.63;8.07;;;;;;;;;;5066208;28;20025;-87
2021/10/13 11:09:03;;;;;;;16.55;7.72;;;11.50;99.90;;;;;;5065139;28;20037;-83
2021/10/13 11:11:31;;;;;;;16.30;7.38;;;;;;;;;;5073572;28;20040;-82
2021/10/13 11:14:16;;;;;;;13.20;7.18;;;;;;;;;;5069605;28;20032;-85
2021/10/13 11:16:58;;;;;;;17.60;7.03;;;;;;;;;;5073241;28;20052;-85
2021/10/13 11:19:35;;;;;;;14.18;7.10;;;;;;;;;;5072285;28;20021;-85
2021/10/13 11:22:03;;;;;;;19.48;8.50;;;;;;;;;;5053542;28;20028;-84
2021/10/13 11:24:30;;;;;;;23.27;8.40;;;;;;;;;;5055390;28;21443;-87
2021/10/13 11:26:56;;;;;;;19.48;8.10;;;;;;;;;;5051475;28;20060;-84
2021/10/13 11:29:23;;;;;;;25.50;9.38;;;;;;;;;;5064892;28;20017;-85
2021/10/13 11:31:50;;;;;;;24.50;8.70;;;;;;;;;;5068666;28;20121;-85
2021/10/13 11:34:17;;;;;;;16.02;6.80;;;;;;;;;;5047934;28;20029;-83
2021/10/13 11:36:47;;;;;;;17.65;7.93;;;;;;;;;;5051758;28;20045;-88
2021/10/13 11:39:25;;;;;;;20.73;8.07;;;;;;;;;;5060536;28;20094;-86
2021/10/13 11:41:51;;;;;;;15.43;7.22;;;;;;;;;;5073587;28;20033;-85
2021/10/13 11:44:23;;;;;;;20.90;7.72;;;;;;;;;;5051609;28;20032;-86
2021/10/13 11:46:59;;;;;;;16.10;7.25;;;;;;;;;;5050919;28;20035;-84
2021/10/13 11:49:25;;;;;;;18.08;6.50;;;;;;;;;;5066790;28;20025;-86
2021/10/13 11:52:07;;;;;;;14.73;6.32;;;;;;;;;;5065125;28;20022;-87
2021/10/13 11:54:35;;;;;;;12.80;6.47;;;;;;;;;;5054426;28;20056;-84
2021/10/13 11:57:02;;;;;;;15.00;6.05;;;;;;;;;;5050040;28;20052;-84
2021/10/13 11:59:28;;;;;;;15.77;5.50;;;;;;;;;;5075481;28;20124;-88
2021/10/13 12:01:54;;;;;;;16.42;5.85;;;;;;;;;;5053118;28;20033;-89
2021/10/13 12:04:20;;;;;;;12.48;4.85;;;;;;;;;;5069188;28;20021;-87
2021/10/13 12:06:46;;;;;;;14.82;5.90;;;;;;;;;;5050547;28;20033;-87
2021/10/13 12:09:13;;;;;;;16.67;6.03;;;;;;;;;;5063928;28;20029;-87
2021/10/13 12:11:39;;;;;;;14.82;5.30;;;;;;;;;;5065254;28;20029;-86
2021/10/13 12:14:12;;;;;;;18.00;5.88;;;;;;;;;;5065933;28;20585;-86
2021/10/13 12:16:38;;;;;;;19.60;6.10;;;;;;;;;;5046415;28;20037;-86
2021/10/13 12:19:12;;;;;;;12.07;4.93;;;;;;;;;;5047785;28;20037;-85
2021/10/13 12:21:38;;;;;;;11.80;5.50;;;;;;;;;;5066901;28;20124;-88
2021/10/13 12:24:05;;;;;;;10.63;4.80;;;;;;;;;;5068782;28;20203;-87
2021/10/13 12:26:42;;;;;;;19.95;4.65;;;13.10;99.90;;;;;;5068901;28;20036;-85
2021/10/13 12:29:12;;;;;;;49.42;5.85;;;;;;;;;;5059927;28;20030;-84
2021/10/13 12:31:38;;;;;;;9.10;4.07;;;;;;;;;;5052260;28;20037;-84
2021/10/13 12:34:09;;;;;;;13.60;4.47;;;;;;;;;;5068808;28;20041;-88
2021/10/13 12:36:42;;;;;;;8.73;3.65;;;;;;;;;;5070011;28;20041;-86
2021/10/13 12:39:10;;;;;;;12.88;4.03;;;;;;;;;;5073300;28;20033;-86
2021/10/13 12:41:37;;;;;;;14.57;4.82;;;;;;;;;;5073320;28;20032;-87
2021/10/13 12:44:13;;;;;;;11.10;4.22;;;;;;;;;;5058433;28;20036;-86
2021/10/13 12:46:40;;;;;;;12.25;4.07;;;;;;;;;;5056389;28;20030;-88
2021/10/13 12:49:14;;;;;;;9.23;4.00;;;;;;;;;;5075519;28;20030;-88
2021/10/13 12:51:58;;;;;;;6.93;3.50;;;;;;;;;;5056384;28;20037;-84
2021/10/13 12:54:25;;;;;;;7.80;3.58;;;;;;;;;;5071426;28;20025;-88
2021/10/13 12:56:51;;;;;;;10.20;4.25;;;;;;;;;;5073398;28;20116;-87
2021/10/13 12:59:17;;;;;;;11.80;4.00;;;;;;;;;;5062553;28;20040;-87
2021/10/13 13:01:43;;;;;;;11.43;4.03;;;;;;;;;;5059686;28;20051;-87
2021/10/13 13:04:09;;;;;;;8.50;4.05;;;;;;;;;;5076788;28;20032;-86
2021/10/13 13:06:36;;;;;;;8.15;3.83;;;;;;;;;;5077704;28;20029;-84
2021/10/13 13:09:02;;;;;;;6.90;3.35;;;;;;;;;;5075546;28;20021;-88
2021/10/13 13:11:28;;;;;;;9.20;4.20;;;;;;;;;;5059406;28;20037;-85
2021/10/13 13:13:54;;;;;;;8.93;2.72;;;;;;;;;;5062139;28;20071;-83
2021/10/13 13:16:24;;;;;;;7.18;3.17;;;;;;;;;;5066564;28;20032;-84
2021/10/13 13:18:51;;;;;;;6.88;3.00;;;;;;;;;;5076555;28;20037;-86
2021/10/13 13:21:17;;;;;;;9.80;3.75;;;;;;;;;;5074781;28;20128;-88
2021/10/13 13:23:43;;;;;;;9.43;3.83;;;;;;;;;;5054091;28;20033;-85
2021/10/13 13:26:09;;;;;;;7.35;3.15;;;;;;;;;;5070656;28;20031;-87
2021/10/13 13:28:35;;;;;;;6.70;2.85;;;;;;;;;;5052126;28;20021;-86
2021/10/13 13:31:01;;;;;;;6.90;2.70;;;;;;;;;;5057416;28;20553;-86
2021/10/13 13:33:27;;;;;;;5.18;2.78;;;;;;;;;;5057550;28;20128;-83
2021/10/13 13:35:53;;;;;;;7.63;4.03;;;;;;;;;;5075622;28;20101;-82
2021/10/13 13:38:19;;;;;;;7.75;2.90;;;;;;;;;;5062741;28;20188;-81
2021/10/13 13:40:45;;;;;;;10.45;6.20;;;;;;;;;;5060500;28;20054;-82
2021/10/13 13:43:14;;;;;;;4.88;2.22;;;;;;;;;;5052724;28;20029;-80
2021/10/13 13:45:40;;;;;;;9.65;4.88;;;;;;;;;;5053073;28;20040;-82
2021/10/13 13:48:07;;;;;;;7.88;3.22;;;;;;;;;;5059915;28;20040;-81
2021/10/13 13:50:33;;;;;;;6.45;2.17;;;;;;;;;;5063010;28;20154;-83
2021/10/13 13:52:59;;;;;;;4.80;2.20;;;;;;;;;;5051776;28;20029;-85
2021/10/13 13:55:25;;;;;;;7.22;2.92;;;;;;;;;;5055067;28;20024;-84
2021/10/13 13:57:53;;;;;;;8.38;3.08;;;;;;;;;;5055478;28;20017;-82
2021/10/13 14:00:19;;;;;;;7.40;3.30;;;;;;;;;;5056778;28;20021;-82
2021/10/13 14:02:45;;;;;;;7.78;2.63;;;;;;;;;;5059276;28;20052;-83
2021/10/13 14:05:12;;;;;;;7.70;2.35;;;;;;;;;;5054272;28;20036;-84
2021/10/13 14:07:38;;;;;;;3.40;1.70;;;;;;;;;;5055861;28;21077;-85
2021/10/13 14:10:05;;;;;;;3.88;2.10;;;;;;;;;;5053897;28;20039;-80
2021/10/13 14:12:32;;;;;;;4.60;1.60;;;;;;;;;;5066148;28;20064;-81
2021/10/13 14:14:58;;;;;;;3.85;1.60;;;;;;;;;;5053399;28;20034;-84
2021/10/13 14:17:24;;;;;;;4.10;1.65;;;;;;;;;;5070209;28;20531;-85
2021/10/13 14:19:50;;;;;;;5.25;1.77;;;;;;;;;;5075569;28;20029;-84
2021/10/13 14:22:16;;;;;;;4.13;1.58;;;;;;;;;;5072566;28;20024;-86
2021/10/13 14:24:43;;;;;;;4.18;1.42;;;;;;;;;;5057876;28;20040;-84
2021/10/13 14:27:09;;;;;;;2.60;1.40;;;;;;;;;;5072783;28;20028;-85
2021/10/13 14:29:35;;;;;;;5.90;1.75;;;;;;;;;;5068277;28;20021;-87
2021/10/13 14:32:01;;;;;;;5.20;1.80;;;;;;;;;;5056088;28;20025;-82